Time;durP1;ratioP1;P1;durP2;ratioP2;P2;SDS_P1;SDS_P2;PMS_P1;PMS_P2;Temp;Humidity;BMP_temperature;BMP_pressure;BME280_temperature;BME280_humidity;BME280_pressure;Samples;Min_cycle;Max_cycle;Signal;HPM_P1;HPM_P2
2023/10/16 00:01:17;;;;;;;8.45;6.07;;;;;;;21.98;68.13;101495.28;4993531;28;20031;-52
2023/10/16 00:03:44;;;;;;;8.90;6.80;;;;;;;21.80;68.76;101500.09;4994025;28;20347;-51
2023/10/16 00:06:14;;;;;;;8.45;5.50;;;;;;;21.78;68.81;101498.75;4994066;28;20162;-48
2023/10/16 00:08:53;;;;;;;100.70;14.20;;;;;;;21.54;69.69;101495.59;4994030;28;20026;-48
2023/10/16 00:11:25;;;;;;;13.55;6.15;;;;;;;21.39;70.30;101500.97;4992346;28;20056;-51
2023/10/16 00:13:56;;;;;;;7.68;5.28;;;;;;;21.25;71.13;101495.09;4993982;28;20038;-50
2023/10/16 00:16:23;;;;;;;9.20;6.00;;;;;;;20.99;71.67;101497.66;4993669;28;20049;-52
2023/10/16 00:18:52;;;;;;;8.23;5.75;;;;;;;20.77;72.59;101500.44;4993655;28;20045;-51
2023/10/16 00:21:19;;;;;;;5.43;4.88;;;;;;;20.51;73.21;101512.16;4993826;28;20068;-48
2023/10/16 00:23:46;;;;;;;6.10;4.95;;;;;;;20.49;73.94;101506.16;4993627;28;20097;-50
2023/10/16 00:26:19;;;;;;;5.95;4.68;;;;;;;20.45;74.28;101507.72;4993463;28;20084;-52
2023/10/16 00:28:46;;;;;;;8.30;6.28;;;;;;;20.06;76.12;101509.69;4993637;28;20101;-51
2023/10/16 00:31:20;;;;;;;6.07;5.30;;;;;;;19.86;77.07;101511.06;4987608;28;20093;-48
2023/10/16 00:33:50;;;;;;;6.88;4.80;;;;;;;19.58;78.96;101512.00;4966299;28;20033;-49
2023/10/16 00:36:17;;;;;;;7.78;5.43;;;;;;;19.66;78.72;101516.25;4973862;28;20027;-51
2023/10/16 00:38:48;;;;;;;6.05;4.60;;;;;;;19.63;78.66;101516.72;4974074;28;20034;-51
2023/10/16 00:43:43;;;;;;;6.95;5.28;;;;;;;19.49;78.93;101511.63;4991913;28;20040;-56
2023/10/16 00:46:14;;;;;;;5.57;4.65;;;;;;;19.50;79.16;101507.00;4990789;28;20058;-54
2023/10/16 00:48:41;;;;;;;7.68;4.80;;;;;;;19.38;80.01;101517.16;4993336;28;20089;-54
2023/10/16 00:51:09;;;;;;;7.30;4.90;;;;;;;19.17;80.74;101514.09;4992459;28;20038;-52
2023/10/16 00:53:40;;;;;;;5.43;4.18;;;;;;;19.11;80.75;101515.09;4985740;28;20113;-52
2023/10/16 00:56:09;;;;;;;4.00;3.50;;;;;;;19.22;80.46;101516.91;4972847;28;20027;-52
2023/10/16 00:58:36;;;;;;;7.38;4.45;;;;;;;18.90;81.31;101515.81;4975097;28;20045;-52
2023/10/16 01:01:09;;;;;;;5.10;3.25;;;;;;;19.15;80.71;101527.09;4973834;28;20501;-53
2023/10/16 01:03:37;;;;;;;6.05;4.05;;;;;;;19.13;80.10;101523.81;4974047;28;20042;-53
2023/10/16 01:06:15;;;;;;;4.60;3.47;;;;;;;18.77;81.81;101529.66;4973972;28;20039;-53
2023/10/16 01:08:51;;;;;;;4.88;3.95;;;;;;;18.62;82.77;101533.72;4974032;28;20034;-52
2023/10/16 01:11:19;;;;;;;4.45;3.70;;;;;;;18.53;82.93;101521.63;4974125;28;20398;-53
2023/10/16 01:13:50;;;;;;;4.95;3.33;;;;;;;18.64;82.96;101528.88;4973652;28;20030;-52
2023/10/16 01:16:18;;;;;;;5.63;3.90;;;;;;;18.55;83.52;101527.63;4973703;28;20027;-53
2023/10/16 01:18:45;;;;;;;6.60;3.58;;;;;;;18.13;85.80;101522.47;4973887;28;20026;-52
2023/10/16 01:21:17;;;;;;;5.75;4.00;;;;;;;18.23;85.31;101521.84;4973682;28;20033;-52
2023/10/16 01:23:46;;;;;;;6.07;3.42;;;;;;;18.02;86.55;101533.34;4973337;28;20043;-52
2023/10/16 01:26:13;;;;;;;3.70;2.95;;;;;;;17.74;87.95;101531.38;4973635;28;20484;-51
2023/10/16 01:28:41;;;;;;;4.70;3.45;;;;;;;17.77;88.00;101537.16;4973620;28;20050;-52
2023/10/16 01:31:07;;;;;;;4.38;3.33;;;;;;;17.62;89.38;101542.19;4997531;28;20065;-52
2023/10/16 01:33:33;;;;;;;4.47;3.58;;;;;;;17.68;88.41;101544.75;5051096;23;20502;-51
2023/10/16 01:36:00;;;;;;;4.72;2.92;;;;;;;17.62;89.03;101545.69;5031743;28;20029;-52
2023/10/16 01:38:27;;;;;;;5.13;3.88;;;;;;;17.46;89.92;101556.41;5041644;28;20031;-52
2023/10/16 01:43:37;;;;;;;7.18;6.32;;;;;;;17.41;89.91;101566.03;5051795;28;20021;-52
2023/10/16 01:46:08;;;;;;;6.03;4.57;;;;;;;17.33;89.93;101561.00;5051440;28;20024;-53
2023/10/16 01:48:42;;;;;;;3.65;3.22;;;;;;;17.16;90.64;101565.44;5051461;28;20385;-51
2023/10/16 01:51:15;;;;;;;5.97;3.53;;;;;;;17.30;90.49;101560.63;5034424;28;20021;-51
2023/10/16 01:53:43;;;;;;;3.28;2.97;;;;;;;17.05;91.00;101555.41;5031538;28;20024;-52
2023/10/16 01:56:15;;;;;;;4.20;2.67;;;;;;;17.03;91.74;101560.19;5031261;28;20033;-51
2023/10/16 01:58:44;;;;;;;3.75;3.05;;;;;;;17.04;91.02;101564.56;5031492;28;20043;-52
2023/10/16 02:01:11;;;;;;;3.72;2.72;;;;;;;17.04;90.79;101564.56;5031316;28;20474;-52
2023/10/16 02:03:38;;;;;;;4.45;2.88;;;;;;;17.01;90.90;101565.84;5031227;28;20130;-52
2023/10/16 02:06:05;;;;;;;3.90;3.03;;;;;;;17.02;90.94;101572.91;5031309;28;20112;-52
2023/10/16 02:08:31;;;;;;;3.28;2.83;;;;;;;16.96;91.15;101573.00;5031385;28;20040;-51
2023/10/16 02:10:57;;;;;;;3.78;2.55;;;;;;;16.83;91.88;101585.66;5031561;28;20028;-50
2023/10/16 02:13:24;;;;;;;3.95;2.92;;;;;;;16.88;91.53;101585.81;5031950;28;20056;-51
2023/10/16 02:15:50;;;;;;;4.65;3.25;;;;;;;16.87;92.15;101581.44;5035069;28;20041;-51
2023/10/16 02:18:22;;;;;;;3.40;3.00;;;;;;;16.88;91.75;101579.59;5036445;28;20025;-51
2023/10/16 02:20:50;;;;;;;4.50;3.10;;;;;;;16.73;92.34;101584.56;5045473;28;20385;-48
2023/10/16 02:23:17;;;;;;;5.00;3.33;;;;;;;16.80;92.40;101579.88;5042025;28;20063;-48
2023/10/16 02:25:45;;;;;;;4.03;3.63;;;;;;;16.85;92.22;101588.13;5051148;28;20373;-49
2023/10/16 02:28:19;;;;;;;7.70;3.72;;;;;;;16.71;92.56;101598.31;5051657;28;20032;-48
2023/10/16 02:30:49;;;;;;;5.30;3.47;;;;;;;16.66;93.00;101589.19;5051624;28;20040;-50
2023/10/16 02:33:22;;;;;;;5.32;3.80;;;;;;;16.51;93.69;101597.72;5051368;28;20143;-49
2023/10/16 02:35:50;;;;;;;4.95;3.30;;;;;;;16.71;92.44;101603.72;5037598;28;20083;-48
2023/10/16 02:38:29;;;;;;;5.75;4.18;;;;;;;16.61;92.53;101604.22;5031507;28;20029;-48
2023/10/16 02:41:07;;;;;;;5.70;3.78;;;;;;;16.63;93.14;101606.69;5031707;28;20600;-49
2023/10/16 02:43:41;;;;;;;6.05;3.60;;;;;;;16.55;93.75;101602.44;5031264;28;20033;-49
2023/10/16 02:46:11;;;;;;;3.95;3.50;;;;;;;16.41;94.71;101603.63;5031900;28;20072;-49
2023/10/16 02:48:38;;;;;;;4.13;3.53;;;;;;;16.39;94.75;101597.66;5011190;28;20126;-49
2023/10/16 02:51:06;;;;;;;3.97;3.05;;;;;;;16.45;93.95;101610.25;4994358;28;20047;-52
2023/10/16 02:53:36;;;;;;;4.78;2.50;;;;;;;16.46;93.92;101609.19;5014808;28;20073;-51
2023/10/16 02:56:36;;;;;;;3.85;3.03;;;;;;;16.49;93.66;101608.75;5013014;28;20111;-51
2023/10/16 02:58:56;;;;;;;2.65;2.45;;;;;;;16.67;93.06;101621.41;5015449;28;20041;-52
2023/10/16 03:01:22;;;;;;;3.13;2.13;;;;;;;16.53;93.10;101614.50;5048730;28;20040;-52
2023/10/16 03:03:50;;;;;;;3.10;2.25;;;;;;;16.54;93.82;101625.09;5040713;28;20029;-52
2023/10/16 03:06:19;;;;;;;3.08;2.00;;;;;;;16.53;94.61;101626.13;5034313;28;20022;-49
2023/10/16 03:08:48;;;;;;;3.40;2.40;;;;;;;16.29;96.63;101624.34;5034562;28;20115;-53
2023/10/16 03:11:16;;;;;;;2.72;2.10;;;;;;;16.40;95.43;101641.69;5028733;28;20504;-51
2023/10/16 03:13:51;;;;;;;3.10;2.50;;;;;;;16.25;97.07;101639.34;5034452;28;20494;-51
2023/10/16 03:16:23;;;;;;;2.60;2.20;;;;;;;16.20;97.75;101642.72;5034654;28;20029;-51
2023/10/16 03:18:50;;;;;;;3.45;2.90;;;;;;;16.20;97.33;101642.72;5034238;28;20033;-52
2023/10/16 03:23:47;;;;;;;3.00;2.58;;;;;;;16.27;97.23;101648.06;5020578;28;20114;-49
2023/10/16 03:26:33;;;;;;;3.63;3.20;;;;;;;16.02;98.38;101640.84;5014750;28;20029;-52
2023/10/16 03:29:02;;;;;;;3.75;3.15;;;;;;;15.86;99.05;101638.69;5014572;28;20068;-51
2023/10/16 03:31:29;;;;;;;3.35;2.85;;;;;;;15.89;99.86;101637.44;5014573;28;20098;-52
2023/10/16 03:33:56;;;;;;;3.25;2.72;;;;;;;15.86;99.30;101633.28;5013722;28;20061;-50
2023/10/16 03:36:23;;;;;;;3.65;3.08;;;;;;;15.94;98.74;101635.72;5019291;28;20028;-52
2023/10/16 03:38:50;;;;;;;5.85;5.25;;;;;;;15.79;99.64;101627.13;5030710;28;20053;-53
2023/10/16 03:43:58;;;;;;;5.30;4.80;;;;;;;15.89;99.80;101650.94;5054113;28;20067;-51
2023/10/16 03:46:27;;;;;;;6.35;5.75;;;;;;;15.76;100.00;101646.47;5048592;28;20032;-52
2023/10/16 03:48:57;;;;;;;6.63;5.93;;;;;;;15.79;100.00;101654.97;5018342;28;20390;-52
2023/10/16 03:51:24;;;;;;;8.30;7.05;;;;;;;15.73;99.76;101650.44;5013841;28;20148;-52
2023/10/16 03:53:52;;;;;;;6.35;5.43;;;;;;;15.56;100.00;101654.69;5013707;28;20495;-49
2023/10/16 03:56:20;;;;;;;4.80;3.75;;;;;;;15.53;100.00;101653.25;5034167;28;20040;-52
2023/10/16 03:58:47;;;;;;;4.20;3.58;;;;;;;15.53;100.00;101638.94;5033300;28;20485;-53
2023/10/16 04:01:18;;;;;;;4.00;3.60;;;;;;;15.45;100.00;101650.84;5012349;28;20021;-52
2023/10/16 04:03:47;;;;;;;4.65;4.13;;;;;;;15.36;100.00;101657.53;5013245;28;20038;-49
2023/10/16 04:06:19;;;;;;;3.83;3.40;;;;;;;15.34;100.00;101667.72;5013910;28;20049;-50
2023/10/16 04:08:49;;;;;;;4.38;3.97;;;;;;;15.45;100.00;101655.41;5014014;28;20037;-52
2023/10/16 04:11:20;;;;;;;4.20;3.75;;;;;;;15.47;100.00;101659.53;5018133;28;20052;-52
2023/10/16 04:13:49;;;;;;;5.00;4.55;;;;;;;15.39;100.00;101664.38;5015827;28;20409;-52
2023/10/16 04:29:49;;;;;;;6.55;5.88;;;;;;;15.34;100.00;101675.81;4989638;28;19920;-52
2023/10/16 04:37:49;;;;;;;8.75;7.35;;;;;;;15.19;100.00;101683.38;5013398;28;20087;-50
2023/10/16 04:42:49;;;;;;;7.65;6.95;;;;;;;15.05;100.00;101688.00;5013540;28;20050;-52
2023/10/16 04:47:56;;;;;;;10.93;8.80;;;;;;;14.94;100.00;101686.00;5033114;28;20022;-52
2023/10/16 04:50:30;;;;;;;8.95;7.53;;;;;;;14.99;100.00;101680.75;5032814;28;20032;-52
2023/10/16 05:15:20;;;;;;;11.85;9.02;;;;;;;14.85;100.00;101680.00;5031925;28;20040;-52
2023/10/16 05:19:54;;;;;;;11.35;8.48;;;;;;;14.88;100.00;101682.28;5013013;28;20072;-51
2023/10/16 06:14:45;;;;;;;17.88;11.93;;;;;;;14.68;100.00;101692.31;5022135;28;20041;-51
2023/10/16 06:17:15;;;;;;;12.50;9.77;;;;;;;14.52;100.00;101690.88;5031617;28;20040;-52
2023/10/16 06:19:45;;;;;;;12.18;8.93;;;;;;;14.66;100.00;101691.69;5031914;28;20034;-52
2023/10/16 06:22:12;;;;;;;12.63;9.00;;;;;;;14.70;100.00;101690.22;5031840;28;20037;-52
2023/10/16 06:24:44;;;;;;;12.38;9.63;;;;;;;14.81;100.00;101688.72;5026626;28;20058;-50
2023/10/16 06:27:12;;;;;;;11.55;8.50;;;;;;;14.83;100.00;101692.88;5017225;28;20168;-51
2023/10/16 06:29:51;;;;;;;9.73;7.95;;;;;;;14.92;100.00;101683.50;5034375;28;20032;-49
2023/10/16 06:32:22;;;;;;;10.70;8.30;;;;;;;14.91;100.00;101689.94;5015361;28;20053;-51
2023/10/16 06:34:51;;;;;;;10.15;7.82;;;;;;;14.93;100.00;101682.44;5015769;28;20042;-48
2023/10/16 06:37:18;;;;;;;12.18;9.82;;;;;;;14.82;100.00;101676.91;5029634;28;20195;-49
2023/10/16 06:39:49;;;;;;;9.45;7.63;;;;;;;14.83;100.00;101687.47;5035465;28;20100;-51
2023/10/16 06:42:18;;;;;;;11.48;8.73;;;;;;;14.74;100.00;101680.66;5035310;28;20026;-51
2023/10/16 06:44:50;;;;;;;12.20;8.32;;;;;;;14.67;100.00;101687.97;5036091;28;20155;-51
2023/10/16 06:47:17;;;;;;;13.68;9.48;;;;;;;14.75;100.00;101679.63;5035779;28;20029;-48
2023/10/16 06:49:46;;;;;;;13.00;10.07;;;;;;;14.81;100.00;101680.63;5035297;28;20021;-51
2023/10/16 06:52:17;;;;;;;14.82;9.65;;;;;;;14.61;100.00;101678.03;5035235;28;20525;-51
2023/10/16 06:54:48;;;;;;;12.00;8.88;;;;;;;14.74;100.00;101673.41;5035208;28;20025;-51
2023/10/16 06:57:14;;;;;;;13.60;8.85;;;;;;;14.65;100.00;101665.75;5034938;28;20033;-50
2023/10/16 06:59:42;;;;;;;12.57;8.45;;;;;;;14.62;100.00;101666.22;5035162;28;20030;-52
2023/10/16 07:02:15;;;;;;;15.65;9.98;;;;;;;14.56;100.00;101669.75;5018609;28;20092;-49
2023/10/16 07:04:44;;;;;;;12.98;9.10;;;;;;;14.69;100.00;101689.38;5034426;28;20048;-50
2023/10/16 07:07:18;;;;;;;13.02;8.65;;;;;;;14.72;100.00;101675.50;5034849;28;20160;-49
2023/10/16 07:09:48;;;;;;;10.07;7.45;;;;;;;14.52;100.00;101675.56;5035052;28;20096;-52
2023/10/16 07:12:19;;;;;;;10.30;7.43;;;;;;;14.43;100.00;101670.56;5034835;28;20033;-49
2023/10/16 07:14:55;;;;;;;12.90;8.85;;;;;;;14.56;100.00;101685.91;5034555;28;20030;-50
2023/10/16 07:17:24;;;;;;;11.18;7.68;;;;;;;14.70;100.00;101692.91;5034784;28;20025;-51
2023/10/16 07:20:00;;;;;;;12.48;8.23;;;;;;;14.59;100.00;101702.47;5035110;28;20029;-52
2023/10/16 07:22:32;;;;;;;11.25;8.32;;;;;;;14.74;100.00;101700.34;5034747;28;20029;-50
2023/10/16 07:27:47;;;;;;;9.98;7.22;;;;;;;14.87;100.00;101710.25;5034752;28;20071;-52
2023/10/16 07:30:33;;;;;;;9.93;7.45;;;;;;;14.77;100.00;101709.91;5034517;28;20469;-49
2023/10/16 07:32:59;;;;;;;10.05;5.80;;;;;;;14.87;100.00;101707.56;5018883;28;20084;-52
2023/10/16 07:35:25;;;;;;;4.82;3.13;;;;;;;14.75;100.00;101717.34;5014629;28;20121;-50
2023/10/16 07:37:54;;;;;;;2.65;2.33;;;;;;;14.56;100.00;101713.69;5014242;28;20442;-48
2023/10/16 07:40:21;;;;;;;3.30;2.75;;;;;;;14.57;100.00;101709.13;5014744;28;20021;-50
2023/10/16 07:42:48;;;;;;;4.47;2.80;;;;;;;14.75;100.00;101706.56;5014448;28;20146;-51
2023/10/16 07:45:15;;;;;;;3.55;2.53;;;;;;;14.75;100.00;101706.56;5014353;28;20030;-51
2023/10/16 07:47:46;;;;;;;3.72;2.95;;;;;;;14.71;100.00;101718.81;5017373;28;20036;-51
2023/10/16 07:50:13;;;;;;;3.88;2.97;;;;;;;14.67;100.00;101713.03;5014697;28;20028;-49
2023/10/16 07:52:41;;;;;;;3.10;2.42;;;;;;;14.55;100.00;101724.66;5014253;28;20028;-51
2023/10/16 07:55:17;;;;;;;4.47;2.75;;;;;;;14.40;100.00;101720.31;5014099;28;20104;-50
2023/10/16 07:57:45;;;;;;;3.60;2.33;;;;;;;14.54;100.00;101721.13;5014283;28;20083;-50
2023/10/16 08:00:14;;;;;;;3.13;2.55;;;;;;;14.28;100.00;101732.75;5014581;28;20496;-50
2023/10/16 08:02:47;;;;;;;4.60;2.78;;;;;;;14.15;100.00;101724.69;5016422;28;20037;-52
2023/10/16 08:05:16;;;;;;;2.55;2.35;;;;;;;14.44;100.00;101718.84;5013730;28;20060;-50
2023/10/16 08:07:46;;;;;;;5.80;2.97;;;;;;;14.26;100.00;101724.03;5014385;28;20034;-49
2023/10/16 08:10:41;;;;;;;4.85;3.67;;;;;;;14.05;100.00;101727.81;5014465;28;20533;-50
2023/10/16 08:13:11;;;;;;;2.88;2.55;;;;;;;14.29;100.00;101712.03;5013757;28;20545;-51
2023/10/16 08:15:51;;;;;;;4.57;3.22;;;;;;;14.38;100.00;101705.38;5014164;28;20088;-50
2023/10/16 08:18:19;;;;;;;3.08;2.28;;;;;;;14.33;100.00;101702.50;5013960;28;20022;-50
2023/10/16 08:20:49;;;;;;;2.83;2.45;;;;;;;14.26;100.00;101706.03;5013738;28;20061;-51
2023/10/16 08:23:21;;;;;;;4.38;2.53;;;;;;;14.18;100.00;101698.19;5013878;28;20129;-49
2023/10/16 08:25:49;;;;;;;1.88;1.55;;;;;;;14.27;100.00;101696.09;5013854;28;20466;-52
2023/10/16 08:28:20;;;;;;;3.28;2.60;;;;;;;13.97;100.00;101699.22;5013659;28;20095;-51
2023/10/16 08:33:17;;;;;;;2.72;2.17;;;;;;;14.02;100.00;101698.59;5013106;28;20049;-51
2023/10/16 08:35:45;;;;;;;2.10;1.90;;;;;;;14.06;100.00;101702.53;5014397;28;20021;-49
2023/10/16 08:38:20;;;;;;;1.65;1.20;;;;;;;14.08;100.00;101705.84;5012855;28;20498;-50
2023/10/16 08:40:57;;;;;;;;;;;;;;;14.08;100.00;101702.31;5013848;28;20029;-52
2023/10/16 08:46:53;;;;;;;;;;;;;;;14.00;100.00;101717.66;5018065;28;20056;-51
2023/10/16 08:49:02;;;;;;;2.00;1.42;;;;;;;13.91;100.00;101712.69;5007180;28;19913;-49
2023/10/16 08:51:30;;;;;;;1.70;1.58;;;;;;;13.95;100.00;101712.06;5013408;28;20544;-49
2023/10/16 08:54:00;;;;;;;2.85;1.65;;;;;;;14.04;100.00;101718.06;5013130;28;20045;-49
2023/10/16 08:56:27;;;;;;;2.83;1.70;;;;;;;14.10;100.00;101721.78;5013207;28;20030;-50
2023/10/16 08:58:56;;;;;;;2.45;1.52;;;;;;;13.99;100.00;101715.16;5013151;28;20034;-50
2023/10/16 09:01:27;;;;;;;2.28;1.45;;;;;;;14.09;100.00;101717.44;5013413;28;20112;-47
2023/10/16 09:04:07;;;;;;;2.60;2.20;;;;;;;13.92;100.00;101707.09;5016461;28;20057;-49
2023/10/16 09:06:37;;;;;;;2.72;2.10;;;;;;;13.79;100.00;101707.09;5012886;28;20034;-49
2023/10/16 09:09:13;;;;;;;4.68;1.80;;;;;;;13.79;100.00;101701.72;5013003;28;20029;-50
2023/10/16 09:11:43;;;;;;;2.47;1.98;;;;;;;14.00;100.00;101709.59;5013107;28;20080;-52
2023/10/16 09:14:13;;;;;;;2.20;2.00;;;;;;;13.94;100.00;101715.78;5012781;28;20467;-51
2023/10/16 09:16:44;;;;;;;3.47;2.13;;;;;;;13.92;100.00;101728.59;5013023;28;20546;-52
2023/10/16 09:19:18;;;;;;;2.30;2.10;;;;;;;14.07;100.00;101735.66;5016240;28;20492;-52
2023/10/16 09:21:45;;;;;;;3.40;2.53;;;;;;;14.17;100.00;101733.41;5012895;28;20183;-51
2023/10/16 09:24:14;;;;;;;2.63;2.42;;;;;;;14.09;100.00;101737.09;5012787;28;20115;-49
2023/10/16 09:26:54;;;;;;;2.72;2.40;;;;;;;14.16;100.00;101746.03;5012925;28;20037;-49
2023/10/16 09:29:35;;;;;;;3.22;2.10;;;;;;;14.05;100.00;101735.88;5012683;28;20522;-52
2023/10/16 09:32:02;;;;;;;3.33;2.33;;;;;;;14.10;100.00;101737.94;5013112;28;20046;-52
2023/10/16 09:34:30;;;;;;;3.17;2.13;;;;;;;14.15;100.00;101730.06;5014208;28;20112;-52
2023/10/16 09:39:48;;;;;;;2.20;1.95;;;;;;;14.28;100.00;101732.75;5012989;28;20124;-50
2023/10/16 09:42:15;;;;;;;3.08;2.17;;;;;;;14.21;100.00;101724.69;5012795;28;20033;-51
2023/10/16 09:44:46;;;;;;;2.50;1.85;;;;;;;14.19;100.00;101720.53;5012103;28;20022;-49
2023/10/16 09:47:27;;;;;;;2.33;1.50;;;;;;;14.20;100.00;101723.00;5018969;28;20013;-51
2023/10/16 09:49:58;;;;;;;3.53;1.90;;;;;;;14.25;100.00;101734.00;5046893;28;20040;-48
2023/10/16 09:52:25;;;;;;;2.60;1.70;;;;;;;14.45;100.00;101731.28;5048382;28;20017;-52
2023/10/16 09:54:52;;;;;;;2.58;2.35;;;;;;;14.30;100.00;101738.75;5051757;28;20377;-50
2023/10/16 09:57:27;;;;;;;2.85;2.00;;;;;;;14.49;100.00;101735.25;5052163;28;20484;-52
2023/10/16 09:59:54;;;;;;;2.83;2.53;;;;;;;14.47;100.00;101728.41;5052288;28;20087;-53
2023/10/16 10:02:35;;;;;;;3.20;2.72;;;;;;;14.30;100.00;101713.69;5055375;28;20037;-50
2023/10/16 10:05:09;;;;;;;4.78;2.95;;;;;;;14.14;100.00;101715.78;5056161;28;20036;-52
2023/10/16 10:07:47;;;;;;;3.17;2.80;;;;;;;14.41;100.00;101713.06;5046644;28;20057;-49
2023/10/16 10:13:10;;;;;;;3.50;3.17;;;;;;;14.20;100.00;101698.78;5017341;28;20053;-50
2023/10/16 10:15:55;;;;;;;4.55;3.40;;;;;;;14.17;100.00;101699.22;5015975;28;20486;-49
2023/10/16 10:19:01;;;;;;;3.60;3.05;;;;;;;14.47;100.00;101705.00;5016187;28;20033;-50
2023/10/16 10:21:28;;;;;;;4.78;3.78;;;;;;;14.40;99.83;101709.53;5014056;28;20045;-48
2023/10/16 10:24:00;;;;;;;6.05;4.28;;;;;;;14.42;99.31;101704.75;5018597;28;20080;-52
2023/10/16 10:26:27;;;;;;;5.45;3.78;;;;;;;14.43;97.92;101709.09;5016130;28;20057;-50
2023/10/16 10:29:12;;;;;;;5.30;3.42;;;;;;;14.27;99.16;101707.69;5015933;28;20049;-51
2023/10/16 10:31:42;;;;;;;3.30;3.00;;;;;;;14.31;99.22;101708.09;5016037;28;20041;-52
2023/10/16 10:34:23;;;;;;;4.32;3.15;;;;;;;14.41;97.71;101713.06;5015654;28;20034;-50
2023/10/16 10:36:53;;;;;;;3.60;3.30;;;;;;;14.36;97.22;101718.25;5016165;28;20528;-52
2023/10/16 10:39:22;;;;;;;5.13;3.35;;;;;;;13.99;97.81;101717.84;5015778;28;20030;-51
2023/10/16 10:42:03;;;;;;;3.53;3.20;;;;;;;13.98;98.66;101713.50;5015782;28;20045;-48
2023/10/16 10:44:32;;;;;;;3.92;2.90;;;;;;;14.17;96.91;101712.69;5015270;28;20034;-51
2023/10/16 10:47:04;;;;;;;4.57;3.45;;;;;;;13.78;99.50;101710.81;5015775;28;20592;-50
2023/10/16 10:49:34;;;;;;;2.50;2.20;;;;;;;13.63;97.73;101707.47;5015733;28;20079;-50
2023/10/16 10:52:05;;;;;;;1.98;1.35;;;;;;;13.50;97.20;101711.00;5015969;28;20402;-48
2023/10/16 10:54:32;;;;;;;2.22;1.48;;;;;;;13.56;96.26;101702.09;5015276;28;20120;-49
2023/10/16 10:57:08;;;;;;;2.03;1.45;;;;;;;13.52;95.68;101710.78;5018389;28;20025;-51
2023/10/16 10:59:41;;;;;;;1.50;1.40;;;;;;;13.63;94.56;101705.63;5018845;28;20122;-51
2023/10/16 11:04:59;;;;;;;2.72;1.90;;;;;;;13.80;93.07;101697.97;5034785;28;20021;-50
2023/10/16 11:07:39;;;;;;;2.67;2.20;;;;;;;13.80;92.90;101702.53;5035485;28;20191;-50
2023/10/16 11:10:07;;;;;;;2.75;1.80;;;;;;;13.74;92.81;101696.09;5035022;28;20028;-51
2023/10/16 11:12:33;;;;;;;3.58;2.60;;;;;;;13.74;92.64;101702.31;5029075;28;20026;-51
2023/10/16 11:15:05;;;;;;;3.10;2.08;;;;;;;13.69;93.03;101701.28;5017217;28;20030;-51
2023/10/16 11:17:37;;;;;;;2.88;2.13;;;;;;;13.65;93.18;101700.84;5035420;28;20021;-48
2023/10/16 11:22:46;;;;;;;4.10;2.40;;;;;;;13.56;93.81;101695.91;5016839;28;20033;-47
2023/10/16 11:25:14;;;;;;;4.95;3.70;;;;;;;13.21;97.46;101696.00;5034314;28;20031;-49
2023/10/16 11:27:42;;;;;;;2.83;1.67;;;;;;;13.16;96.30;101696.59;5034686;28;20022;-51
2023/10/16 11:30:13;;;;;;;2.20;1.70;;;;;;;12.66;97.37;101695.16;5034605;28;20466;-50
2023/10/16 11:32:45;;;;;;;2.60;1.50;;;;;;;12.79;96.46;101695.22;5034220;28;20071;-50
2023/10/16 11:35:16;;;;;;;1.30;1.20;;;;;;;12.98;94.58;101687.41;5034866;28;20104;-49
2023/10/16 11:37:59;;;;;;;2.33;1.30;;;;;;;13.00;94.79;101688.06;5052127;28;20083;-50
2023/10/16 11:40:33;;;;;;;3.30;1.42;;;;;;;12.71;95.09;101698.03;5041648;28;20351;-51
2023/10/16 11:43:02;;;;;;;1.53;1.20;;;;;;;12.79;95.09;101700.59;5032831;28;20037;-52
2023/10/16 11:45:33;;;;;;;2.72;1.27;;;;;;;12.68;95.10;101699.28;5053298;28;20037;-52
2023/10/16 11:50:52;;;;;;;2.22;1.15;;;;;;;12.77;94.41;101702.66;5041416;28;20035;-51
2023/10/16 11:53:28;;;;;;;1.10;0.98;;;;;;;12.56;93.96;101695.50;5054039;28;20056;-48
2023/10/16 11:55:56;;;;;;;2.50;1.13;;;;;;;12.42;93.76;101704.50;5053769;28;20116;-50
2023/10/16 11:58:22;;;;;;;1.02;0.82;;;;;;;12.64;92.76;101707.94;5046651;28;20030;-51
2023/10/16 12:00:57;;;;;;;1.67;0.88;;;;;;;12.57;92.43;101705.22;5034127;28;20109;-48
2023/10/16 12:03:24;;;;;;;1.53;1.00;;;;;;;12.79;91.06;101711.31;5033281;28;20026;-50
2023/10/16 12:05:51;;;;;;;3.35;1.42;;;;;;;12.45;90.68;101720.22;5033893;28;20338;-48
2023/10/16 12:08:18;;;;;;;1.92;0.80;;;;;;;12.03;92.89;101721.16;5034489;28;20037;-48
2023/10/16 12:10:47;;;;;;;2.05;0.80;;;;;;;11.95;93.87;101724.81;5033633;28;20025;-48
2023/10/16 12:13:14;;;;;;;5.10;1.30;;;;;;;11.79;94.80;101725.03;5033732;28;20381;-51
2023/10/16 12:15:46;;;;;;;5.78;1.60;;;;;;;11.56;96.82;101730.59;5033545;28;20017;-49
2023/10/16 12:18:14;;;;;;;2.38;1.30;;;;;;;11.86;95.66;101742.88;5033835;28;20029;-51
2023/10/16 12:20:40;;;;;;;2.17;1.40;;;;;;;12.17;94.01;101739.03;5041087;28;20025;-51
2023/10/16 12:23:06;;;;;;;2.30;1.40;;;;;;;12.07;94.50;101739.34;5053305;28;20033;-48
2023/10/16 12:25:36;;;;;;;2.55;1.40;;;;;;;12.07;94.90;101735.84;5039901;28;20389;-50
2023/10/16 12:28:07;;;;;;;2.25;1.55;;;;;;;12.10;95.60;101732.75;5029471;28;20026;-50
2023/10/16 12:30:36;;;;;;;4.78;2.40;;;;;;;11.98;96.82;101735.13;5031935;28;20029;-48
2023/10/16 12:33:06;;;;;;;3.15;1.55;;;;;;;12.19;95.87;101728.91;5013883;28;20046;-49
2023/10/16 12:35:34;;;;;;;2.85;2.00;;;;;;;12.40;95.09;101734.25;5029209;28;20030;-49
2023/10/16 12:38:04;;;;;;;8.38;3.15;;;;;;;12.39;94.27;101729.91;5033089;28;20936;-50
2023/10/16 12:40:43;;;;;;;3.67;2.35;;;;;;;12.40;94.99;101730.72;5033322;28;20037;-49
2023/10/16 12:43:09;;;;;;;4.10;3.00;;;;;;;12.52;94.25;101733.69;5036409;28;20413;-49
2023/10/16 12:45:39;;;;;;;4.00;2.80;;;;;;;12.76;93.53;101727.84;5036984;28;20143;-52
2023/10/16 12:48:07;;;;;;;4.72;2.75;;;;;;;12.64;92.65;101719.50;5037512;28;20029;-49
2023/10/16 12:50:33;;;;;;;5.32;2.40;;;;;;;12.33;93.08;101732.53;5027576;28;20389;-51
2023/10/16 12:53:03;;;;;;;3.00;1.48;;;;;;;12.41;91.93;101735.06;5035013;28;20021;-51
2023/10/16 12:55:29;;;;;;;2.03;1.48;;;;;;;12.18;90.16;101740.69;5046009;28;20385;-50
2023/10/16 12:57:56;;;;;;;2.78;1.27;;;;;;;12.25;90.55;101735.34;5047979;28;20068;-46
2023/10/16 13:00:23;;;;;;;1.63;1.25;;;;;;;12.40;89.26;101739.59;5037843;28;20127;-46
2023/10/16 13:02:51;;;;;;;1.35;0.90;;;;;;;12.35;88.67;101735.84;5048128;28;20036;-51
2023/10/16 13:05:24;;;;;;;1.25;0.80;;;;;;;12.35;87.90;101741.22;5044995;28;20102;-50
2023/10/16 13:07:51;;;;;;;3.75;0.93;;;;;;;12.35;88.07;101741.22;5032195;28;20440;-49
2023/10/16 13:10:25;;;;;;;1.77;0.70;;;;;;;12.38;87.69;101740.81;5048899;28;20436;-48
2023/10/16 13:12:52;;;;;;;0.80;0.80;;;;;;;12.50;87.01;101752.69;5043714;28;20091;-47
2023/10/16 13:15:31;;;;;;;1.95;0.88;;;;;;;12.39;86.64;101758.59;5025793;28;20055;-48
2023/10/16 13:18:01;;;;;;;1.90;1.00;;;;;;;12.48;86.04;101756.59;5036289;28;20646;-50
2023/10/16 13:20:27;;;;;;;2.93;1.00;;;;;;;12.33;86.69;101754.84;5029595;28;20051;-50
2023/10/16 13:22:55;;;;;;;1.08;0.80;;;;;;;12.34;86.94;101761.88;5051608;28;20478;-47
2023/10/16 13:25:35;;;;;;;2.38;1.20;;;;;;;12.37;87.24;101764.16;5040910;28;20515;-52
2023/10/16 13:28:03;;;;;;;2.00;1.30;;;;;;;12.28;87.70;101768.03;5031851;28;20375;-46
2023/10/16 13:30:31;;;;;;;3.55;1.40;;;;;;;12.37;87.38;101756.09;5031741;28;20480;-47
2023/10/16 13:33:06;;;;;;;6.72;2.50;;;;;;;12.07;88.56;101766.19;5040027;28;21151;-49
2023/10/16 13:35:32;;;;;;;2.17;1.35;;;;;;;12.07;88.76;101760.81;5022832;28;20034;-48
2023/10/16 13:38:04;;;;;;;4.10;1.70;;;;;;;12.11;88.60;101761.28;5040267;28;20090;-48
2023/10/16 13:40:32;;;;;;;2.58;1.63;;;;;;;12.20;88.37;101765.47;5031790;28;20540;-48
2023/10/16 13:43:32;;;;;;;2.53;1.73;;;;;;;12.17;88.69;101768.56;5031804;28;20418;-49
2023/10/16 13:45:52;;;;;;;4.57;2.30;;;;;;;12.12;89.30;101770.97;5023476;28;20045;-47
2023/10/16 13:48:21;;;;;;;3.38;2.00;;;;;;;12.08;89.68;101769.69;5034437;28;20057;-46
2023/10/16 13:50:48;;;;;;;2.75;2.25;;;;;;;12.13;89.34;101764.59;5041829;28;20124;-51